sensor_id;sensor_type;location;lat;lon;timestamp;P1;durP1;ratioP1;P2;durP2;ratioP2
23123;SDS011;11731;48.592;8.858;2023-07-24T00:00:30;9.07;;;5.53;;
23123;SDS011;11731;48.592;8.858;2023-07-24T00:02:59;8.43;;;5.47;;
23123;SDS011;11731;48.592;8.858;2023-07-24T00:05:25;10.07;;;5.77;;
23123;SDS011;11731;48.592;8.858;2023-07-24T00:07:52;6.40;;;5.00;;
23123;SDS011;11731;48.592;8.858;2023-07-24T00:10:19;8.10;;;6.00;;
23123;SDS011;11731;48.592;8.858;2023-07-24T00:12:46;8.03;;;5.67;;
23123;SDS011;11731;48.592;8.858;2023-07-24T00:15:16;9.07;;;5.67;;
23123;SDS011;11731;48.592;8.858;2023-07-24T00:17:44;8.37;;;5.57;;
23123;SDS011;11731;48.592;8.858;2023-07-24T00:20:11;7.77;;;5.60;;
23123;SDS011;11731;48.592;8.858;2023-07-24T00:22:38;9.37;;;5.60;;
23123;SDS011;11731;48.592;8.858;2023-07-24T00:25:05;6.83;;;5.17;;
23123;SDS011;11731;48.592;8.858;2023-07-24T00:27:34;7.47;;;5.10;;
23123;SDS011;11731;48.592;8.858;2023-07-24T00:30:01;8.97;;;5.70;;
23123;SDS011;11731;48.592;8.858;2023-07-24T00:32:34;9.10;;;5.33;;
23123;SDS011;11731;48.592;8.858;2023-07-24T00:35:02;7.57;;;5.27;;
23123;SDS011;11731;48.592;8.858;2023-07-24T00:37:29;8.17;;;5.70;;
23123;SDS011;11731;48.592;8.858;2023-07-24T00:39:56;8.13;;;6.40;;
23123;SDS011;11731;48.592;8.858;2023-07-24T00:42:23;8.60;;;5.83;;
23123;SDS011;11731;48.592;8.858;2023-07-24T00:44:50;7.53;;;5.50;;
23123;SDS011;11731;48.592;8.858;2023-07-24T00:47:17;11.23;;;6.23;;
23123;SDS011;11731;48.592;8.858;2023-07-24T00:49:44;7.77;;;5.53;;
23123;SDS011;11731;48.592;8.858;2023-07-24T00:52:13;11.33;;;5.10;;
23123;SDS011;11731;48.592;8.858;2023-07-24T00:54:40;9.77;;;6.00;;
23123;SDS011;11731;48.592;8.858;2023-07-24T00:57:07;9.60;;;6.10;;
23123;SDS011;11731;48.592;8.858;2023-07-24T00:59:34;8.17;;;5.83;;
23123;SDS011;11731;48.592;8.858;2023-07-24T01:02:01;9.03;;;5.80;;
23123;SDS011;11731;48.592;8.858;2023-07-24T01:04:28;6.40;;;5.00;;
23123;SDS011;11731;48.592;8.858;2023-07-24T01:06:55;11.40;;;6.23;;
23123;SDS011;11731;48.592;8.858;2023-07-24T01:09:23;8.77;;;6.20;;
23123;SDS011;11731;48.592;8.858;2023-07-24T01:11:50;8.30;;;5.80;;
23123;SDS011;11731;48.592;8.858;2023-07-24T01:14:23;8.43;;;5.67;;
23123;SDS011;11731;48.592;8.858;2023-07-24T01:16:53;8.47;;;5.73;;
23123;SDS011;11731;48.592;8.858;2023-07-24T01:19:27;9.70;;;5.87;;
23123;SDS011;11731;48.592;8.858;2023-07-24T01:22:09;7.53;;;5.33;;
23123;SDS011;11731;48.592;8.858;2023-07-24T01:24:51;10.87;;;5.50;;
23123;SDS011;11731;48.592;8.858;2023-07-24T01:27:31;6.97;;;5.27;;
23123;SDS011;11731;48.592;8.858;2023-07-24T01:29:58;10.13;;;6.17;;
23123;SDS011;11731;48.592;8.858;2023-07-24T01:32:25;10.47;;;6.03;;
23123;SDS011;11731;48.592;8.858;2023-07-24T01:34:52;9.07;;;6.30;;
23123;SDS011;11731;48.592;8.858;2023-07-24T01:37:20;10.40;;;6.37;;
23123;SDS011;11731;48.592;8.858;2023-07-24T01:39:48;8.90;;;5.83;;
23123;SDS011;11731;48.592;8.858;2023-07-24T01:42:16;9.70;;;5.57;;
23123;SDS011;11731;48.592;8.858;2023-07-24T01:44:44;8.93;;;5.80;;
23123;SDS011;11731;48.592;8.858;2023-07-24T01:47:16;10.60;;;5.87;;
23123;SDS011;11731;48.592;8.858;2023-07-24T01:49:43;9.73;;;5.40;;
23123;SDS011;11731;48.592;8.858;2023-07-24T01:52:10;8.47;;;5.97;;
23123;SDS011;11731;48.592;8.858;2023-07-24T01:54:37;9.53;;;5.97;;
23123;SDS011;11731;48.592;8.858;2023-07-24T01:57:04;10.03;;;6.00;;
23123;SDS011;11731;48.592;8.858;2023-07-24T01:59:31;12.40;;;6.23;;
23123;SDS011;11731;48.592;8.858;2023-07-24T02:01:59;9.67;;;5.83;;
23123;SDS011;11731;48.592;8.858;2023-07-24T02:04:26;10.80;;;6.20;;
23123;SDS011;11731;48.592;8.858;2023-07-24T02:06:53;9.17;;;6.43;;
23123;SDS011;11731;48.592;8.858;2023-07-24T02:09:20;7.83;;;5.77;;
23123;SDS011;11731;48.592;8.858;2023-07-24T02:11:47;8.80;;;5.80;;
23123;SDS011;11731;48.592;8.858;2023-07-24T02:14:14;8.07;;;5.53;;
23123;SDS011;11731;48.592;8.858;2023-07-24T02:16:41;9.60;;;5.30;;
23123;SDS011;11731;48.592;8.858;2023-07-24T02:19:10;8.57;;;6.17;;
23123;SDS011;11731;48.592;8.858;2023-07-24T02:21:36;10.00;;;6.40;;
23123;SDS011;11731;48.592;8.858;2023-07-24T02:24:03;8.57;;;5.53;;
23123;SDS011;11731;48.592;8.858;2023-07-24T02:26:30;11.57;;;5.90;;
23123;SDS011;11731;48.592;8.858;2023-07-24T02:28:57;9.73;;;6.17;;
23123;SDS011;11731;48.592;8.858;2023-07-24T02:31:25;10.10;;;6.10;;
23123;SDS011;11731;48.592;8.858;2023-07-24T02:33:52;12.00;;;6.03;;
23123;SDS011;11731;48.592;8.858;2023-07-24T02:36:20;8.57;;;6.30;;
23123;SDS011;11731;48.592;8.858;2023-07-24T02:38:47;9.83;;;6.10;;
23123;SDS011;11731;48.592;8.858;2023-07-24T02:41:14;8.70;;;6.30;;
23123;SDS011;11731;48.592;8.858;2023-07-24T02:43:41;9.70;;;6.00;;
23123;SDS011;11731;48.592;8.858;2023-07-24T02:46:08;8.27;;;6.20;;
23123;SDS011;11731;48.592;8.858;2023-07-24T02:48:35;10.07;;;5.87;;
23123;SDS011;11731;48.592;8.858;2023-07-24T02:51:02;11.03;;;5.67;;
23123;SDS011;11731;48.592;8.858;2023-07-24T02:53:30;9.67;;;6.33;;
23123;SDS011;11731;48.592;8.858;2023-07-24T02:55:57;8.87;;;6.27;;
23123;SDS011;11731;48.592;8.858;2023-07-24T02:58:23;8.60;;;5.73;;
23123;SDS011;11731;48.592;8.858;2023-07-24T03:00:50;10.33;;;6.07;;
23123;SDS011;11731;48.592;8.858;2023-07-24T03:03:17;10.33;;;6.10;;
23123;SDS011;11731;48.592;8.858;2023-07-24T03:05:44;10.03;;;6.03;;
23123;SDS011;11731;48.592;8.858;2023-07-24T03:08:11;9.60;;;6.60;;
23123;SDS011;11731;48.592;8.858;2023-07-24T03:10:41;8.70;;;5.60;;
23123;SDS011;11731;48.592;8.858;2023-07-24T03:13:07;12.63;;;6.67;;
23123;SDS011;11731;48.592;8.858;2023-07-24T03:15:34;10.93;;;6.47;;
23123;SDS011;11731;48.592;8.858;2023-07-24T03:18:01;10.90;;;6.57;;
23123;SDS011;11731;48.592;8.858;2023-07-24T03:20:29;10.47;;;6.10;;
23123;SDS011;11731;48.592;8.858;2023-07-24T03:22:56;9.53;;;6.10;;
23123;SDS011;11731;48.592;8.858;2023-07-24T03:25:23;9.17;;;5.97;;
23123;SDS011;11731;48.592;8.858;2023-07-24T03:27:51;9.50;;;6.40;;
23123;SDS011;11731;48.592;8.858;2023-07-24T03:30:18;8.73;;;6.40;;
23123;SDS011;11731;48.592;8.858;2023-07-24T03:32:45;9.50;;;5.03;;
23123;SDS011;11731;48.592;8.858;2023-07-24T03:35:12;10.10;;;6.53;;
23123;SDS011;11731;48.592;8.858;2023-07-24T03:37:39;9.07;;;6.60;;
23123;SDS011;11731;48.592;8.858;2023-07-24T03:40:07;10.90;;;6.83;;
23123;SDS011;11731;48.592;8.858;2023-07-24T03:42:34;9.47;;;6.40;;
23123;SDS011;11731;48.592;8.858;2023-07-24T03:45:02;9.30;;;5.60;;
23123;SDS011;11731;48.592;8.858;2023-07-24T03:47:30;12.17;;;6.53;;
23123;SDS011;11731;48.592;8.858;2023-07-24T03:50:10;9.13;;;6.00;;
23123;SDS011;11731;48.592;8.858;2023-07-24T03:52:37;10.53;;;6.90;;
23123;SDS011;11731;48.592;8.858;2023-07-24T03:55:05;10.93;;;6.73;;
23123;SDS011;11731;48.592;8.858;2023-07-24T03:57:33;10.40;;;6.30;;
23123;SDS011;11731;48.592;8.858;2023-07-24T04:00:00;11.13;;;5.93;;
23123;SDS011;11731;48.592;8.858;2023-07-24T04:02:28;9.47;;;6.20;;
23123;SDS011;11731;48.592;8.858;2023-07-24T04:04:55;8.17;;;6.00;;
23123;SDS011;11731;48.592;8.858;2023-07-24T04:07:22;9.90;;;6.23;;
23123;SDS011;11731;48.592;8.858;2023-07-24T04:09:49;12.03;;;6.17;;
23123;SDS011;11731;48.592;8.858;2023-07-24T04:12:15;11.87;;;6.17;;
23123;SDS011;11731;48.592;8.858;2023-07-24T04:14:42;10.40;;;6.07;;
23123;SDS011;11731;48.592;8.858;2023-07-24T04:17:09;10.57;;;6.63;;
23123;SDS011;11731;48.592;8.858;2023-07-24T04:19:37;10.27;;;5.87;;
23123;SDS011;11731;48.592;8.858;2023-07-24T04:22:04;8.83;;;6.03;;
23123;SDS011;11731;48.592;8.858;2023-07-24T04:24:31;10.17;;;6.10;;
23123;SDS011;11731;48.592;8.858;2023-07-24T04:26:58;10.47;;;6.30;;
23123;SDS011;11731;48.592;8.858;2023-07-24T04:29:25;8.77;;;5.80;;
23123;SDS011;11731;48.592;8.858;2023-07-24T04:31:52;10.33;;;6.63;;
23123;SDS011;11731;48.592;8.858;2023-07-24T04:34:19;11.97;;;6.67;;
23123;SDS011;11731;48.592;8.858;2023-07-24T04:36:47;10.03;;;6.60;;
23123;SDS011;11731;48.592;8.858;2023-07-24T04:39:14;11.57;;;6.63;;
23123;SDS011;11731;48.592;8.858;2023-07-24T04:41:40;9.53;;;6.33;;
23123;SDS011;11731;48.592;8.858;2023-07-24T04:44:07;10.50;;;6.50;;
23123;SDS011;11731;48.592;8.858;2023-07-24T04:46:36;11.13;;;6.50;;
23123;SDS011;11731;48.592;8.858;2023-07-24T04:49:03;11.17;;;7.53;;
23123;SDS011;11731;48.592;8.858;2023-07-24T04:51:30;14.80;;;6.73;;
23123;SDS011;11731;48.592;8.858;2023-07-24T04:54:00;10.33;;;6.63;;
23123;SDS011;11731;48.592;8.858;2023-07-24T04:56:27;11.83;;;7.10;;
23123;SDS011;11731;48.592;8.858;2023-07-24T04:58:54;11.13;;;7.20;;
23123;SDS011;11731;48.592;8.858;2023-07-24T05:01:23;10.40;;;6.07;;
23123;SDS011;11731;48.592;8.858;2023-07-24T05:03:50;9.70;;;6.70;;
23123;SDS011;11731;48.592;8.858;2023-07-24T05:06:17;10.63;;;6.97;;
23123;SDS011;11731;48.592;8.858;2023-07-24T05:08:44;9.37;;;6.70;;
23123;SDS011;11731;48.592;8.858;2023-07-24T05:11:21;11.23;;;6.30;;
23123;SDS011;11731;48.592;8.858;2023-07-24T05:14:11;9.40;;;6.20;;
23123;SDS011;11731;48.592;8.858;2023-07-24T05:16:38;8.43;;;6.13;;
23123;SDS011;11731;48.592;8.858;2023-07-24T05:19:05;9.63;;;5.80;;
23123;SDS011;11731;48.592;8.858;2023-07-24T05:21:32;9.90;;;6.43;;
23123;SDS011;11731;48.592;8.858;2023-07-24T05:23:59;9.63;;;6.50;;
23123;SDS011;11731;48.592;8.858;2023-07-24T05:26:35;10.00;;;7.27;;
23123;SDS011;11731;48.592;8.858;2023-07-24T05:29:01;11.43;;;6.93;;
23123;SDS011;11731;48.592;8.858;2023-07-24T05:31:28;10.27;;;6.37;;
23123;SDS011;11731;48.592;8.858;2023-07-24T05:33:55;10.80;;;6.43;;
23123;SDS011;11731;48.592;8.858;2023-07-24T05:36:22;9.60;;;6.47;;
23123;SDS011;11731;48.592;8.858;2023-07-24T05:38:49;8.57;;;6.17;;
23123;SDS011;11731;48.592;8.858;2023-07-24T05:41:17;8.83;;;5.60;;
23123;SDS011;11731;48.592;8.858;2023-07-24T05:43:46;12.57;;;6.63;;
23123;SDS011;11731;48.592;8.858;2023-07-24T05:46:12;12.83;;;6.77;;
23123;SDS011;11731;48.592;8.858;2023-07-24T05:48:39;9.00;;;6.13;;
23123;SDS011;11731;48.592;8.858;2023-07-24T05:51:06;10.63;;;6.07;;
23123;SDS011;11731;48.592;8.858;2023-07-24T05:53:33;10.60;;;6.47;;
23123;SDS011;11731;48.592;8.858;2023-07-24T05:56:02;12.37;;;6.73;;
23123;SDS011;11731;48.592;8.858;2023-07-24T05:58:29;10.40;;;6.70;;
23123;SDS011;11731;48.592;8.858;2023-07-24T06:00:57;13.97;;;7.10;;
23123;SDS011;11731;48.592;8.858;2023-07-24T06:03:24;10.13;;;6.83;;
23123;SDS011;11731;48.592;8.858;2023-07-24T06:05:51;15.00;;;7.00;;
23123;SDS011;11731;48.592;8.858;2023-07-24T06:08:19;13.47;;;7.17;;
23123;SDS011;11731;48.592;8.858;2023-07-24T06:10:46;9.23;;;6.20;;
23123;SDS011;11731;48.592;8.858;2023-07-24T06:13:14;9.43;;;6.30;;
23123;SDS011;11731;48.592;8.858;2023-07-24T06:15:41;8.83;;;6.53;;
23123;SDS011;11731;48.592;8.858;2023-07-24T06:18:09;11.43;;;6.83;;
23123;SDS011;11731;48.592;8.858;2023-07-24T06:20:36;9.13;;;6.73;;
23123;SDS011;11731;48.592;8.858;2023-07-24T06:23:03;9.47;;;6.47;;
23123;SDS011;11731;48.592;8.858;2023-07-24T06:25:30;13.40;;;7.33;;
23123;SDS011;11731;48.592;8.858;2023-07-24T06:27:57;10.87;;;6.70;;
23123;SDS011;11731;48.592;8.858;2023-07-24T06:30:24;11.37;;;6.93;;
23123;SDS011;11731;48.592;8.858;2023-07-24T06:32:51;12.90;;;7.00;;
23123;SDS011;11731;48.592;8.858;2023-07-24T06:35:19;13.63;;;7.20;;
23123;SDS011;11731;48.592;8.858;2023-07-24T06:37:46;11.27;;;7.00;;
23123;SDS011;11731;48.592;8.858;2023-07-24T06:40:13;11.73;;;7.40;;
23123;SDS011;11731;48.592;8.858;2023-07-24T06:42:40;9.60;;;6.60;;
23123;SDS011;11731;48.592;8.858;2023-07-24T06:45:07;11.20;;;7.37;;
23123;SDS011;11731;48.592;8.858;2023-07-24T06:47:34;15.33;;;7.30;;
23123;SDS011;11731;48.592;8.858;2023-07-24T06:50:01;11.13;;;7.00;;
23123;SDS011;11731;48.592;8.858;2023-07-24T06:52:38;11.10;;;6.70;;
23123;SDS011;11731;48.592;8.858;2023-07-24T06:55:06;10.90;;;7.17;;
23123;SDS011;11731;48.592;8.858;2023-07-24T06:57:33;10.90;;;7.57;;
23123;SDS011;11731;48.592;8.858;2023-07-24T07:00:00;11.00;;;7.13;;
23123;SDS011;11731;48.592;8.858;2023-07-24T07:02:27;9.00;;;6.60;;
23123;SDS011;11731;48.592;8.858;2023-07-24T07:04:54;13.60;;;7.13;;
23123;SDS011;11731;48.592;8.858;2023-07-24T07:07:21;10.50;;;7.10;;
23123;SDS011;11731;48.592;8.858;2023-07-24T07:09:49;10.07;;;6.63;;
23123;SDS011;11731;48.592;8.858;2023-07-24T07:12:16;17.60;;;7.70;;
23123;SDS011;11731;48.592;8.858;2023-07-24T07:14:42;14.40;;;7.10;;
23123;SDS011;11731;48.592;8.858;2023-07-24T07:17:09;9.60;;;6.70;;
23123;SDS011;11731;48.592;8.858;2023-07-24T07:19:36;13.73;;;7.50;;
23123;SDS011;11731;48.592;8.858;2023-07-24T07:22:04;11.73;;;7.50;;
23123;SDS011;11731;48.592;8.858;2023-07-24T07:24:30;12.50;;;7.23;;
23123;SDS011;11731;48.592;8.858;2023-07-24T07:26:59;11.20;;;7.23;;
23123;SDS011;11731;48.592;8.858;2023-07-24T07:29:26;11.00;;;7.03;;
23123;SDS011;11731;48.592;8.858;2023-07-24T07:31:52;9.83;;;6.70;;
23123;SDS011;11731;48.592;8.858;2023-07-24T07:34:19;7.87;;;6.07;;
23123;SDS011;11731;48.592;8.858;2023-07-24T07:36:46;10.47;;;7.10;;
23123;SDS011;11731;48.592;8.858;2023-07-24T07:39:13;11.03;;;7.27;;
23123;SDS011;11731;48.592;8.858;2023-07-24T07:41:40;11.70;;;6.50;;
23123;SDS011;11731;48.592;8.858;2023-07-24T07:44:16;10.53;;;6.77;;
23123;SDS011;11731;48.592;8.858;2023-07-24T07:47:04;10.20;;;7.10;;
23123;SDS011;11731;48.592;8.858;2023-07-24T07:49:31;11.43;;;6.87;;
23123;SDS011;11731;48.592;8.858;2023-07-24T07:52:22;11.40;;;7.27;;
23123;SDS011;11731;48.592;8.858;2023-07-24T07:54:49;11.53;;;6.57;;
23123;SDS011;11731;48.592;8.858;2023-07-24T07:57:16;8.90;;;5.50;;
23123;SDS011;11731;48.592;8.858;2023-07-24T07:59:44;7.57;;;4.67;;
23123;SDS011;11731;48.592;8.858;2023-07-24T08:02:14;7.37;;;4.50;;
23123;SDS011;11731;48.592;8.858;2023-07-24T08:04:45;6.80;;;5.20;;
23123;SDS011;11731;48.592;8.858;2023-07-24T08:07:12;10.63;;;5.67;;
23123;SDS011;11731;48.592;8.858;2023-07-24T08:09:39;8.10;;;4.53;;
23123;SDS011;11731;48.592;8.858;2023-07-24T08:12:06;5.60;;;4.10;;
23123;SDS011;11731;48.592;8.858;2023-07-24T08:14:34;5.03;;;4.00;;
23123;SDS011;11731;48.592;8.858;2023-07-24T08:17:02;5.70;;;4.30;;
23123;SDS011;11731;48.592;8.858;2023-07-24T08:19:29;7.27;;;4.63;;
23123;SDS011;11731;48.592;8.858;2023-07-24T08:21:56;5.27;;;4.20;;
23123;SDS011;11731;48.592;8.858;2023-07-24T08:24:23;8.67;;;4.93;;
23123;SDS011;11731;48.592;8.858;2023-07-24T08:26:50;7.23;;;5.23;;
23123;SDS011;11731;48.592;8.858;2023-07-24T08:29:17;8.93;;;5.23;;
23123;SDS011;11731;48.592;8.858;2023-07-24T08:31:46;6.87;;;4.80;;
23123;SDS011;11731;48.592;8.858;2023-07-24T08:34:35;6.77;;;4.67;;
23123;SDS011;11731;48.592;8.858;2023-07-24T08:37:02;7.03;;;4.97;;
23123;SDS011;11731;48.592;8.858;2023-07-24T08:39:30;6.30;;;4.60;;
23123;SDS011;11731;48.592;8.858;2023-07-24T08:41:57;7.83;;;4.43;;
23123;SDS011;11731;48.592;8.858;2023-07-24T08:44:24;8.43;;;4.23;;
23123;SDS011;11731;48.592;8.858;2023-07-24T08:46:56;6.43;;;4.30;;
23123;SDS011;11731;48.592;8.858;2023-07-24T08:49:23;7.63;;;4.10;;
23123;SDS011;11731;48.592;8.858;2023-07-24T08:51:53;8.07;;;4.53;;
23123;SDS011;11731;48.592;8.858;2023-07-24T08:54:21;5.07;;;4.17;;
23123;SDS011;11731;48.592;8.858;2023-07-24T08:56:49;6.13;;;4.33;;
23123;SDS011;11731;48.592;8.858;2023-07-24T08:59:17;6.03;;;3.90;;
23123;SDS011;11731;48.592;8.858;2023-07-24T09:01:44;7.80;;;4.80;;
23123;SDS011;11731;48.592;8.858;2023-07-24T09:04:13;6.97;;;4.30;;
23123;SDS011;11731;48.592;8.858;2023-07-24T09:06:49;6.43;;;4.47;;
23123;SDS011;11731;48.592;8.858;2023-07-24T09:09:31;9.07;;;4.77;;
23123;SDS011;11731;48.592;8.858;2023-07-24T09:11:58;7.30;;;4.30;;
23123;SDS011;11731;48.592;8.858;2023-07-24T09:14:26;7.07;;;4.40;;
23123;SDS011;11731;48.592;8.858;2023-07-24T09:17:04;6.10;;;4.60;;
23123;SDS011;11731;48.592;8.858;2023-07-24T09:19:32;7.33;;;5.00;;
23123;SDS011;11731;48.592;8.858;2023-07-24T09:22:12;7.33;;;5.13;;
23123;SDS011;11731;48.592;8.858;2023-07-24T09:24:50;6.17;;;4.67;;
23123;SDS011;11731;48.592;8.858;2023-07-24T09:27:17;7.60;;;5.00;;
23123;SDS011;11731;48.592;8.858;2023-07-24T09:29:44;9.53;;;4.93;;
23123;SDS011;11731;48.592;8.858;2023-07-24T09:32:18;6.40;;;4.83;;
23123;SDS011;11731;48.592;8.858;2023-07-24T09:34:46;7.33;;;5.00;;
23123;SDS011;11731;48.592;8.858;2023-07-24T09:37:23;6.47;;;5.10;;
23123;SDS011;11731;48.592;8.858;2023-07-24T09:39:52;7.17;;;4.67;;
23123;SDS011;11731;48.592;8.858;2023-07-24T09:42:27;7.07;;;5.03;;
23123;SDS011;11731;48.592;8.858;2023-07-24T09:44:54;7.70;;;5.40;;
23123;SDS011;11731;48.592;8.858;2023-07-24T09:47:21;9.63;;;5.03;;
23123;SDS011;11731;48.592;8.858;2023-07-24T09:49:48;7.80;;;5.20;;
23123;SDS011;11731;48.592;8.858;2023-07-24T09:52:18;8.77;;;5.40;;
23123;SDS011;11731;48.592;8.858;2023-07-24T09:54:47;7.70;;;5.50;;
23123;SDS011;11731;48.592;8.858;2023-07-24T09:57:22;7.73;;;5.23;;
23123;SDS011;11731;48.592;8.858;2023-07-24T09:59:51;7.20;;;5.60;;
23123;SDS011;11731;48.592;8.858;2023-07-24T10:02:18;9.07;;;5.47;;
23123;SDS011;11731;48.592;8.858;2023-07-24T10:04:45;5.97;;;5.00;;
23123;SDS011;11731;48.592;8.858;2023-07-24T10:07:13;10.03;;;5.00;;
23123;SDS011;11731;48.592;8.858;2023-07-24T10:09:41;7.73;;;5.53;;
23123;SDS011;11731;48.592;8.858;2023-07-24T10:12:10;7.90;;;5.43;;
23123;SDS011;11731;48.592;8.858;2023-07-24T10:14:37;6.40;;;4.63;;
23123;SDS011;11731;48.592;8.858;2023-07-24T10:17:05;6.87;;;5.70;;
23123;SDS011;11731;48.592;8.858;2023-07-24T10:19:35;10.17;;;5.37;;
23123;SDS011;11731;48.592;8.858;2023-07-24T10:22:03;10.30;;;5.93;;
23123;SDS011;11731;48.592;8.858;2023-07-24T10:24:30;8.50;;;5.70;;
23123;SDS011;11731;48.592;8.858;2023-07-24T10:26:57;10.77;;;5.70;;
23123;SDS011;11731;48.592;8.858;2023-07-24T10:29:25;8.90;;;6.57;;
23123;SDS011;11731;48.592;8.858;2023-07-24T10:31:52;8.70;;;5.87;;
23123;SDS011;11731;48.592;8.858;2023-07-24T10:34:20;9.87;;;5.40;;
23123;SDS011;11731;48.592;8.858;2023-07-24T10:36:47;7.97;;;5.77;;
23123;SDS011;11731;48.592;8.858;2023-07-24T10:42:04;9.63;;;6.13;;
23123;SDS011;11731;48.592;8.858;2023-07-24T10:44:33;13.70;;;6.30;;
23123;SDS011;11731;48.592;8.858;2023-07-24T10:47:00;10.77;;;6.23;;
23123;SDS011;11731;48.592;8.858;2023-07-24T10:49:28;12.73;;;6.30;;
23123;SDS011;11731;48.592;8.858;2023-07-24T10:51:55;7.23;;;5.63;;
23123;SDS011;11731;48.592;8.858;2023-07-24T10:54:22;8.67;;;5.80;;
23123;SDS011;11731;48.592;8.858;2023-07-24T10:56:49;9.93;;;6.03;;
23123;SDS011;11731;48.592;8.858;2023-07-24T10:59:23;7.83;;;5.70;;
23123;SDS011;11731;48.592;8.858;2023-07-24T11:02:02;9.00;;;5.60;;
23123;SDS011;11731;48.592;8.858;2023-07-24T11:04:30;6.27;;;4.60;;
23123;SDS011;11731;48.592;8.858;2023-07-24T11:06:58;8.67;;;5.10;;
23123;SDS011;11731;48.592;8.858;2023-07-24T11:09:33;8.10;;;5.67;;
23123;SDS011;11731;48.592;8.858;2023-07-24T11:12:08;8.27;;;5.93;;
23123;SDS011;11731;48.592;8.858;2023-07-24T11:14:45;8.80;;;5.97;;
23123;SDS011;11731;48.592;8.858;2023-07-24T11:17:14;9.07;;;5.37;;
23123;SDS011;11731;48.592;8.858;2023-07-24T11:19:41;9.17;;;5.63;;
23123;SDS011;11731;48.592;8.858;2023-07-24T11:22:08;8.00;;;5.50;;
23123;SDS011;11731;48.592;8.858;2023-07-24T11:24:50;9.70;;;5.83;;
23123;SDS011;11731;48.592;8.858;2023-07-24T11:27:17;8.40;;;6.10;;
23123;SDS011;11731;48.592;8.858;2023-07-24T11:29:47;9.30;;;6.03;;
23123;SDS011;11731;48.592;8.858;2023-07-24T11:32:18;7.10;;;5.33;;
23123;SDS011;11731;48.592;8.858;2023-07-24T11:34:45;8.67;;;6.30;;
23123;SDS011;11731;48.592;8.858;2023-07-24T11:37:14;7.97;;;5.77;;
23123;SDS011;11731;48.592;8.858;2023-07-24T11:39:41;7.67;;;5.67;;
23123;SDS011;11731;48.592;8.858;2023-07-24T11:42:08;7.10;;;5.40;;
23123;SDS011;11731;48.592;8.858;2023-07-24T11:44:35;7.17;;;5.17;;
23123;SDS011;11731;48.592;8.858;2023-07-24T11:47:02;6.17;;;5.20;;
23123;SDS011;11731;48.592;8.858;2023-07-24T11:49:32;8.40;;;5.93;;
23123;SDS011;11731;48.592;8.858;2023-07-24T11:51:59;8.43;;;5.40;;
23123;SDS011;11731;48.592;8.858;2023-07-24T11:54:27;7.97;;;5.47;;
23123;SDS011;11731;48.592;8.858;2023-07-24T11:56:54;7.60;;;5.30;;
23123;SDS011;11731;48.592;8.858;2023-07-24T11:59:21;7.87;;;5.30;;
23123;SDS011;11731;48.592;8.858;2023-07-24T12:01:48;7.87;;;4.83;;
23123;SDS011;11731;48.592;8.858;2023-07-24T12:04:15;7.30;;;5.80;;
23123;SDS011;11731;48.592;8.858;2023-07-24T12:06:44;8.23;;;5.50;;
23123;SDS011;11731;48.592;8.858;2023-07-24T12:09:11;9.23;;;5.13;;
23123;SDS011;11731;48.592;8.858;2023-07-24T12:11:41;5.50;;;4.50;;
23123;SDS011;11731;48.592;8.858;2023-07-24T12:14:09;6.57;;;5.57;;
23123;SDS011;11731;48.592;8.858;2023-07-24T12:16:36;6.20;;;4.97;;
23123;SDS011;11731;48.592;8.858;2023-07-24T12:19:03;7.37;;;5.47;;
23123;SDS011;11731;48.592;8.858;2023-07-24T12:21:30;6.90;;;4.47;;
23123;SDS011;11731;48.592;8.858;2023-07-24T12:23:58;7.73;;;5.07;;
23123;SDS011;11731;48.592;8.858;2023-07-24T12:26:25;7.10;;;5.20;;
23123;SDS011;11731;48.592;8.858;2023-07-24T12:28:52;6.67;;;5.03;;
23123;SDS011;11731;48.592;8.858;2023-07-24T12:31:21;6.17;;;4.43;;
23123;SDS011;11731;48.592;8.858;2023-07-24T12:33:49;6.37;;;4.50;;
23123;SDS011;11731;48.592;8.858;2023-07-24T12:36:16;5.90;;;4.30;;
23123;SDS011;11731;48.592;8.858;2023-07-24T12:38:43;6.43;;;4.43;;
23123;SDS011;11731;48.592;8.858;2023-07-24T12:41:12;6.93;;;4.17;;
23123;SDS011;11731;48.592;8.858;2023-07-24T12:43:38;5.80;;;4.20;;
23123;SDS011;11731;48.592;8.858;2023-07-24T12:46:09;6.73;;;4.73;;
23123;SDS011;11731;48.592;8.858;2023-07-24T12:48:35;7.03;;;4.43;;
23123;SDS011;11731;48.592;8.858;2023-07-24T12:51:02;5.23;;;3.87;;
23123;SDS011;11731;48.592;8.858;2023-07-24T12:53:29;5.67;;;4.53;;
23123;SDS011;11731;48.592;8.858;2023-07-24T12:55:56;5.70;;;4.17;;
23123;SDS011;11731;48.592;8.858;2023-07-24T12:58:24;6.00;;;4.00;;
23123;SDS011;11731;48.592;8.858;2023-07-24T13:01:00;5.23;;;3.90;;
23123;SDS011;11731;48.592;8.858;2023-07-24T13:03:27;6.23;;;3.80;;
23123;SDS011;11731;48.592;8.858;2023-07-24T13:05:54;5.20;;;4.20;;
23123;SDS011;11731;48.592;8.858;2023-07-24T13:08:35;5.23;;;3.90;;
23123;SDS011;11731;48.592;8.858;2023-07-24T13:12:37;5.83;;;3.77;;
23123;SDS011;11731;48.592;8.858;2023-07-24T13:14:05;6.27;;;4.37;;
23123;SDS011;11731;48.592;8.858;2023-07-24T13:16:32;5.90;;;4.63;;
23123;SDS011;11731;48.592;8.858;2023-07-24T13:18:59;5.00;;;3.93;;
23123;SDS011;11731;48.592;8.858;2023-07-24T13:21:25;6.37;;;3.63;;
23123;SDS011;11731;48.592;8.858;2023-07-24T13:23:52;5.83;;;4.23;;
23123;SDS011;11731;48.592;8.858;2023-07-24T13:26:20;4.57;;;3.80;;
23123;SDS011;11731;48.592;8.858;2023-07-24T13:28:47;6.27;;;3.83;;
23123;SDS011;11731;48.592;8.858;2023-07-24T13:31:19;4.77;;;4.07;;
23123;SDS011;11731;48.592;8.858;2023-07-24T13:33:47;4.77;;;3.83;;
23123;SDS011;11731;48.592;8.858;2023-07-24T13:36:14;4.53;;;3.67;;
23123;SDS011;11731;48.592;8.858;2023-07-24T13:38:41;5.87;;;3.63;;
23123;SDS011;11731;48.592;8.858;2023-07-24T13:41:08;6.53;;;4.07;;
23123;SDS011;11731;48.592;8.858;2023-07-24T13:43:35;6.07;;;4.17;;
23123;SDS011;11731;48.592;8.858;2023-07-24T13:46:02;4.73;;;3.70;;
23123;SDS011;11731;48.592;8.858;2023-07-24T13:48:30;5.53;;;4.03;;
23123;SDS011;11731;48.592;8.858;2023-07-24T13:50:57;4.63;;;3.90;;
23123;SDS011;11731;48.592;8.858;2023-07-24T13:53:24;6.90;;;3.57;;
23123;SDS011;11731;48.592;8.858;2023-07-24T13:55:51;6.63;;;3.60;;
23123;SDS011;11731;48.592;8.858;2023-07-24T13:58:18;6.10;;;3.47;;
23123;SDS011;11731;48.592;8.858;2023-07-24T14:00:45;4.10;;;3.63;;
23123;SDS011;11731;48.592;8.858;2023-07-24T14:03:11;4.57;;;3.63;;
23123;SDS011;11731;48.592;8.858;2023-07-24T14:05:40;5.00;;;3.43;;
23123;SDS011;11731;48.592;8.858;2023-07-24T14:08:06;6.03;;;3.60;;
23123;SDS011;11731;48.592;8.858;2023-07-24T14:10:34;5.87;;;3.37;;
23123;SDS011;11731;48.592;8.858;2023-07-24T14:13:01;4.73;;;3.67;;
23123;SDS011;11731;48.592;8.858;2023-07-24T14:15:28;5.30;;;3.93;;
23123;SDS011;11731;48.592;8.858;2023-07-24T14:17:55;5.43;;;3.37;;
23123;SDS011;11731;48.592;8.858;2023-07-24T14:20:22;3.93;;;3.50;;
23123;SDS011;11731;48.592;8.858;2023-07-24T14:22:50;4.97;;;3.63;;
23123;SDS011;11731;48.592;8.858;2023-07-24T14:25:17;5.53;;;3.87;;
23123;SDS011;11731;48.592;8.858;2023-07-24T14:27:44;5.63;;;3.40;;
23123;SDS011;11731;48.592;8.858;2023-07-24T14:30:16;4.10;;;3.37;;
23123;SDS011;11731;48.592;8.858;2023-07-24T14:32:42;4.83;;;4.17;;
23123;SDS011;11731;48.592;8.858;2023-07-24T14:35:09;7.83;;;3.80;;
23123;SDS011;11731;48.592;8.858;2023-07-24T14:37:36;5.47;;;3.60;;
23123;SDS011;11731;48.592;8.858;2023-07-24T14:40:05;6.33;;;4.00;;
23123;SDS011;11731;48.592;8.858;2023-07-24T14:42:33;3.63;;;3.23;;
23123;SDS011;11731;48.592;8.858;2023-07-24T14:45:00;5.10;;;3.80;;
23123;SDS011;11731;48.592;8.858;2023-07-24T14:47:27;5.50;;;3.43;;
23123;SDS011;11731;48.592;8.858;2023-07-24T14:49:54;5.00;;;3.83;;
23123;SDS011;11731;48.592;8.858;2023-07-24T14:52:22;4.60;;;3.40;;